createdAt,value
2018-07-14T00:00:19.934Z,99601.23
2018-07-14T00:02:50.510Z,99604.37
2018-07-14T00:05:21.422Z,99602.52
2018-07-14T00:07:52.113Z,99604.89
2018-07-14T00:10:22.705Z,99607.23
2018-07-14T00:12:53.638Z,99595.45
2018-07-14T00:15:27.831Z,99603.30
2018-07-14T00:17:58.665Z,99602.00
2018-07-14T00:20:29.374Z,99603.00
2018-07-14T00:23:00.228Z,99602.74
2018-07-14T00:25:35.912Z,99606.09
2018-07-14T00:28:06.685Z,99608.46
2018-07-14T00:30:37.434Z,99605.36
2018-07-14T00:33:08.110Z,99608.26
2018-07-14T00:35:38.749Z,99614.84
2018-07-14T00:38:09.431Z,99617.70
2018-07-14T00:40:40.130Z,99614.53
2018-07-14T00:43:10.820Z,99608.45
2018-07-14T00:45:41.316Z,99608.45
2018-07-14T00:48:11.949Z,99605.83
2018-07-14T00:50:42.677Z,99600.84
2018-07-14T00:53:13.425Z,99606.56
2018-07-14T00:55:44.025Z,99598.45
2018-07-14T00:58:14.712Z,99599.56
2018-07-14T01:00:45.307Z,99609.98
2018-07-14T01:03:16.133Z,99608.64
2018-07-14T01:05:46.641Z,99615.13
2018-07-14T01:08:17.350Z,99617.16
2018-07-14T01:10:47.889Z,99613.75
2018-07-14T01:13:18.581Z,99603.89
2018-07-14T01:15:49.417Z,99608.34
2018-07-14T01:18:20.512Z,99616.97
2018-07-14T01:20:51.208Z,99618.27
2018-07-14T01:23:21.997Z,99623.75
2018-07-14T01:25:52.693Z,99620.16
2018-07-14T01:28:23.499Z,99630.92
2018-07-14T01:30:54.197Z,99634.23
2018-07-14T01:33:24.893Z,99633.68
2018-07-14T01:35:55.549Z,99633.81
2018-07-14T01:38:25.874Z,99639.77
2018-07-14T01:40:56.565Z,99628.84
2018-07-14T01:43:27.336Z,99636.65
2018-07-14T01:45:58.010Z,99636.59
2018-07-14T01:48:28.722Z,99631.13
2018-07-14T01:50:59.225Z,99628.16
2018-07-14T01:53:29.854Z,99630.01
2018-07-14T01:56:00.493Z,99635.14
2018-07-14T01:58:31.079Z,99627.75
2018-07-14T02:01:01.683Z,99629.78
2018-07-14T02:03:32.641Z,99632.94
2018-07-14T02:06:03.105Z,99625.66
2018-07-14T02:08:33.873Z,99622.62
2018-07-14T02:11:06.533Z,99626.07
2018-07-14T02:13:37.281Z,99628.21
2018-07-14T02:16:08.110Z,99629.33
2018-07-14T02:18:38.428Z,99629.58
2018-07-14T02:21:09.264Z,99627.40
2018-07-14T02:23:40.045Z,99626.69
2018-07-14T02:26:10.633Z,99634.57
2018-07-14T02:28:42.865Z,99628.69
2018-07-14T02:31:13.548Z,99625.02
2018-07-14T02:33:44.061Z,99623.01
2018-07-14T02:36:15.217Z,99620.23
2018-07-14T02:38:46.050Z,99619.19
2018-07-14T02:41:16.729Z,99620.48
2018-07-14T02:43:47.439Z,99609.27
2018-07-14T02:46:17.999Z,99617.92
2018-07-14T02:48:48.833Z,99613.56
2018-07-14T02:51:19.450Z,99608.57
2018-07-14T02:53:50.138Z,99618.20
2018-07-14T02:56:20.753Z,99613.80
2018-07-14T02:58:51.689Z,99607.53
2018-07-14T03:01:22.318Z,99621.10
2018-07-14T03:03:53.058Z,99623.27
2018-07-14T03:06:23.723Z,99616.19
2018-07-14T03:08:54.297Z,99616.91
2018-07-14T03:11:24.769Z,99612.44
2018-07-14T03:13:55.653Z,99614.75
2018-07-14T03:16:26.279Z,99616.60
2018-07-14T03:18:56.758Z,99609.26
2018-07-14T03:21:26.698Z,99609.31
2018-07-14T03:23:57.110Z,99604.61
2018-07-14T03:26:27.673Z,99604.08
2018-07-14T03:28:58.062Z,99607.47
2018-07-14T03:31:28.457Z,99603.13
2018-07-14T03:33:58.856Z,99604.92
2018-07-14T03:36:29.282Z,99604.92
2018-07-14T03:38:59.638Z,99605.53
2018-07-14T03:41:29.995Z,99608.70
2018-07-14T03:44:00.512Z,99615.47
2018-07-14T03:46:31.946Z,99618.60
2018-07-14T03:49:02.144Z,99627.31
2018-07-14T03:51:40.265Z,99628.92
2018-07-14T03:54:10.960Z,99631.50
2018-07-14T03:56:42.073Z,99624.09
2018-07-14T03:59:12.741Z,99632.21
2018-07-14T04:01:43.466Z,99626.54
2018-07-14T04:04:14.311Z,99632.58
2018-07-14T04:06:44.930Z,99632.31
2018-07-14T04:09:15.450Z,99626.61
2018-07-14T04:11:46.047Z,99626.59
2018-07-14T04:14:16.349Z,99630.53
2018-07-14T04:16:46.825Z,99631.61
2018-07-14T04:19:17.136Z,99629.78
2018-07-14T04:21:47.459Z,99631.09
2018-07-14T04:24:18.069Z,99630.58
2018-07-14T04:26:48.417Z,99629.52
2018-07-14T04:29:18.834Z,99642.03
2018-07-14T04:31:49.218Z,99634.16
2018-07-14T04:34:19.765Z,99630.25
2018-07-14T04:36:50.130Z,99628.65
2018-07-14T04:39:21.033Z,99632.05
2018-07-14T04:41:51.393Z,99624.18
2018-07-14T04:44:21.996Z,99626.83
2018-07-14T04:46:52.425Z,99622.06
2018-07-14T04:49:23.282Z,99620.20
2018-07-14T04:51:53.663Z,99629.58
2018-07-14T04:54:24.210Z,99629.09
2018-07-14T04:56:54.094Z,99626.22
2018-07-14T04:59:25.009Z,99636.53
2018-07-14T05:01:55.714Z,99633.53
2018-07-14T05:04:26.439Z,99631.26
2018-07-14T05:06:57.278Z,99630.45
2018-07-14T05:09:28.046Z,99636.36
2018-07-14T05:11:58.746Z,99627.31
2018-07-14T05:14:29.478Z,99627.41
2018-07-14T05:17:00.157Z,99623.61
2018-07-14T05:19:30.842Z,99627.19
2018-07-14T05:22:01.533Z,99627.31
2018-07-14T05:24:33.380Z,99621.20
2018-07-14T05:27:04.171Z,99627.86
2018-07-14T05:29:35.014Z,99625.70
2018-07-14T05:32:05.681Z,99631.19
2018-07-14T05:34:36.781Z,99629.65
2018-07-14T05:37:07.590Z,99637.64
2018-07-14T05:39:39.988Z,99635.31
2018-07-14T05:42:10.677Z,99623.36
2018-07-14T05:44:41.516Z,99633.98
2018-07-14T05:47:12.231Z,99627.41
2018-07-14T05:49:42.762Z,99625.99
2018-07-14T05:52:13.500Z,99631.31
2018-07-14T05:54:44.345Z,99623.50
2018-07-14T05:57:15.069Z,99623.00
2018-07-14T05:59:45.854Z,99628.16
2018-07-14T06:02:16.566Z,99626.31
2018-07-14T06:04:46.833Z,99633.53
2018-07-14T06:07:17.445Z,99623.88
2018-07-14T06:09:48.272Z,99634.11
2018-07-14T06:12:18.948Z,99635.50
2018-07-14T06:14:49.670Z,99633.06
2018-07-14T06:17:20.364Z,99631.48
2018-07-14T06:19:51.269Z,99630.59
2018-07-14T06:22:21.997Z,99642.30
2018-07-14T06:24:52.987Z,99635.23
2018-07-14T06:27:23.629Z,99632.45
2018-07-14T06:29:54.601Z,99638.31
2018-07-14T06:32:25.269Z,99631.77
2018-07-14T06:34:55.757Z,99634.19
2018-07-14T06:37:26.109Z,99634.38
2018-07-14T06:39:56.582Z,99641.80
2018-07-14T06:42:26.964Z,99636.66
2018-07-14T06:44:57.434Z,99635.52
2018-07-14T06:47:27.876Z,99635.55
2018-07-14T06:49:59.428Z,99634.91
2018-07-14T06:52:29.970Z,99628.17
2018-07-14T06:55:00.446Z,99632.18
2018-07-14T06:57:30.782Z,99631.70
2018-07-14T07:00:01.586Z,99630.33
2018-07-14T07:02:31.906Z,99626.12
2018-07-14T07:05:02.850Z,99631.88
2018-07-14T07:07:38.186Z,99635.23
2018-07-14T07:10:09.026Z,99633.27
2018-07-14T07:12:39.681Z,99632.20
2018-07-14T07:15:10.516Z,99630.82
2018-07-14T07:17:40.945Z,99630.72
2018-07-14T07:20:11.692Z,99636.88
2018-07-14T07:22:42.081Z,99632.30
2018-07-14T07:25:13.014Z,99633.94
2018-07-14T07:27:43.215Z,99626.36
2018-07-14T07:30:14.142Z,99628.52
2018-07-14T07:32:44.801Z,99633.45
2018-07-14T07:35:15.679Z,99624.34
2018-07-14T07:37:46.371Z,99631.62
2018-07-14T07:40:17.042Z,99632.66
2018-07-14T07:42:47.357Z,99629.67
2018-07-14T07:45:17.974Z,99622.98
2018-07-14T07:47:48.809Z,99627.59
2018-07-14T07:50:20.562Z,99631.69
2018-07-14T07:52:50.861Z,99623.69
2018-07-14T07:55:21.445Z,99625.84
2018-07-14T07:57:52.053Z,99616.08
2018-07-14T08:00:22.389Z,99623.21
2018-07-14T08:02:53.123Z,99617.89
2018-07-14T08:05:24.337Z,99616.98
2018-07-14T08:07:55.106Z,99620.63
2018-07-14T08:10:26.009Z,99617.69
2018-07-14T08:12:56.619Z,99615.53
2018-07-14T08:15:27.425Z,99620.48
2018-07-14T08:17:58.549Z,99619.52
2018-07-14T08:20:29.364Z,99608.93
2018-07-14T08:22:59.925Z,99620.68
2018-07-14T08:25:30.629Z,99610.81
2018-07-14T08:28:01.322Z,99612.73
2018-07-14T08:30:32.321Z,99602.01
2018-07-14T08:33:03.030Z,99613.33
2018-07-14T08:35:34.139Z,99602.61
2018-07-14T08:38:04.812Z,99608.61
2018-07-14T08:40:35.553Z,99595.33
2018-07-14T08:43:06.350Z,99603.95
2018-07-14T08:45:37.474Z,99598.84
2018-07-14T08:48:07.821Z,99599.98
2018-07-14T08:50:38.550Z,99597.89
2018-07-14T08:53:09.434Z,99600.65
2018-07-14T08:55:40.650Z,99596.63
2018-07-14T08:58:11.229Z,99597.67
2018-07-14T09:00:42.093Z,99600.48
2018-07-14T09:03:12.421Z,99594.47
2018-07-14T09:05:43.182Z,99593.03
2018-07-14T09:08:13.978Z,99594.40
2018-07-14T09:10:44.978Z,99591.15
2018-07-14T09:13:15.649Z,99584.92
2018-07-14T09:15:46.559Z,99590.53
2018-07-14T09:18:17.058Z,99593.75
2018-07-14T09:20:47.525Z,99586.99
2018-07-14T09:23:18.281Z,99582.81
2018-07-14T09:25:49.057Z,99583.95
2018-07-14T09:28:19.747Z,99579.76
2018-07-14T09:30:50.449Z,99575.74
2018-07-14T09:33:20.983Z,99577.61
2018-07-14T09:35:51.881Z,99579.00
2018-07-14T09:38:22.581Z,99569.98
2018-07-14T09:40:53.521Z,99567.91
2018-07-14T09:43:24.286Z,99569.22
2018-07-14T09:45:54.949Z,99565.45
2018-07-14T09:48:25.642Z,99561.66
2018-07-14T09:50:56.552Z,99571.94
2018-07-14T09:53:27.293Z,99569.23
2018-07-14T09:55:58.282Z,99571.02
2018-07-14T09:58:28.933Z,99570.50
2018-07-14T10:01:04.387Z,99570.02
2018-07-14T10:03:35.042Z,99565.98
2018-07-14T10:06:05.938Z,99570.58
2018-07-14T10:08:36.646Z,99557.44
2018-07-14T10:11:07.313Z,99560.73
2018-07-14T10:13:37.865Z,99554.69
2018-07-14T10:16:08.557Z,99556.00
2018-07-14T10:18:39.223Z,99550.86
2018-07-14T10:21:10.102Z,99558.91
2018-07-14T10:23:40.625Z,99548.98
2018-07-14T10:26:11.455Z,99546.67
2018-07-14T10:28:42.083Z,99547.50
2018-07-14T10:31:12.902Z,99553.50
2018-07-14T10:33:43.824Z,99550.19
2018-07-14T10:36:14.571Z,99547.78
2018-07-14T10:38:45.377Z,99550.42
2018-07-14T10:41:16.063Z,99543.41
2018-07-14T10:43:46.773Z,99548.92
2018-07-14T10:46:17.699Z,99541.94
2018-07-14T10:48:48.442Z,99545.16
2018-07-14T10:51:19.246Z,99551.32
2018-07-14T10:53:49.829Z,99531.09
2018-07-14T10:56:20.604Z,99539.52
2018-07-14T10:58:51.270Z,99537.16
2018-07-14T11:01:22.213Z,99533.07
2018-07-14T11:03:52.953Z,99529.78
2018-07-14T11:06:23.925Z,99520.44
2018-07-14T11:08:54.510Z,99531.33
2018-07-14T11:11:25.530Z,99527.04
2018-07-14T11:13:56.090Z,99523.52
2018-07-14T11:16:26.774Z,99522.19
2018-07-14T11:18:57.530Z,99515.00
2018-07-14T11:21:28.233Z,99519.45
2018-07-14T11:23:58.962Z,99516.05
2018-07-14T11:26:30.172Z,99517.88
2018-07-14T11:29:00.341Z,99510.28
2018-07-14T11:31:31.170Z,99510.16
2018-07-14T11:34:01.957Z,99511.17
2018-07-14T11:36:32.886Z,99500.44
2018-07-14T11:39:03.878Z,99507.06
2018-07-14T11:41:34.703Z,99502.66
2018-07-14T11:44:05.663Z,99501.69
2018-07-14T11:46:36.766Z,99501.03
2018-07-14T11:49:07.486Z,99495.42
2018-07-14T11:51:38.261Z,99492.59
2018-07-14T11:54:08.880Z,99482.55
2018-07-14T11:56:39.645Z,99485.98
2018-07-14T11:59:10.319Z,99480.06
2018-07-14T12:01:41.159Z,99480.06
2018-07-14T12:04:11.745Z,99485.63
2018-07-14T12:06:42.472Z,99486.67
2018-07-14T12:09:13.240Z,99481.55
2018-07-14T12:11:44.118Z,99479.95
2018-07-14T12:14:14.822Z,99481.60
2018-07-14T12:16:45.823Z,99479.74
2018-07-14T12:19:16.486Z,99477.06
2018-07-14T12:21:47.365Z,99473.92
2018-07-14T12:24:18.037Z,99481.07
2018-07-14T12:26:48.927Z,99479.61
2018-07-14T12:29:19.438Z,99472.08
2018-07-14T12:31:50.218Z,99478.45
2018-07-14T12:34:20.889Z,99479.17
2018-07-14T12:36:52.746Z,99467.45
2018-07-14T12:39:23.626Z,99474.06
2018-07-14T12:41:54.558Z,99459.25
2018-07-14T12:44:25.314Z,99473.99
2018-07-14T12:46:56.278Z,99470.02
2018-07-14T12:49:26.975Z,99468.70
2018-07-14T12:51:57.895Z,99471.78
2018-07-14T12:54:28.770Z,99467.06
2018-07-14T12:56:59.805Z,99467.95
2018-07-14T12:59:30.523Z,99463.62
2018-07-14T13:02:01.406Z,99467.00
2018-07-14T13:04:32.037Z,99465.14
2018-07-14T13:07:03.079Z,99457.38
2018-07-14T13:09:33.867Z,99458.39
2018-07-14T13:12:04.748Z,99460.48
2018-07-14T13:14:35.441Z,99463.59
2018-07-14T13:17:06.508Z,99465.31
2018-07-14T13:19:37.246Z,99454.00
2018-07-14T13:22:08.350Z,99452.94
2018-07-14T13:24:39.031Z,99451.63
2018-07-14T13:27:10.137Z,99449.29
2018-07-14T13:29:40.974Z,99442.05
2018-07-14T13:32:11.882Z,99452.40
2018-07-14T13:34:42.409Z,99447.44
2018-07-14T13:37:13.238Z,99443.39
2018-07-14T13:39:43.960Z,99441.41
2018-07-14T13:42:14.758Z,99443.94
2018-07-14T13:44:45.515Z,99433.34
2018-07-14T13:47:16.438Z,99435.30
2018-07-14T13:49:47.152Z,99431.65
2018-07-14T13:52:18.023Z,99437.63
2018-07-14T13:54:48.750Z,99429.05
2018-07-14T13:57:19.554Z,99423.64
2018-07-14T13:59:50.223Z,99429.33
2018-07-14T14:02:21.137Z,99422.02
2018-07-14T14:04:51.726Z,99421.00
2018-07-14T14:07:22.623Z,99428.80
2018-07-14T14:09:53.301Z,99423.38
2018-07-14T14:12:24.386Z,99421.80
2018-07-14T14:14:55.273Z,99416.55
2018-07-14T14:17:26.226Z,99418.46
2018-07-14T14:19:57.127Z,99417.22
2018-07-14T14:22:27.853Z,99412.17
2018-07-14T14:24:58.678Z,99415.38
2018-07-14T14:27:29.669Z,99410.32
2018-07-14T14:30:00.282Z,99418.26
2018-07-14T14:32:31.129Z,99410.94
2018-07-14T14:35:01.827Z,99415.54
2018-07-14T14:37:32.013Z,99414.24
2018-07-14T14:40:02.370Z,99413.50
2018-07-14T14:42:32.733Z,99408.77
2018-07-14T14:45:03.139Z,99409.53
2018-07-14T14:47:34.006Z,99413.59
2018-07-14T14:50:04.761Z,99413.09
2018-07-14T14:52:35.673Z,99402.77
2018-07-14T14:55:06.602Z,99403.90
2018-07-14T14:57:37.306Z,99402.77
2018-07-14T15:00:08.032Z,99398.41
2018-07-14T15:02:38.817Z,99393.82
2018-07-14T15:05:09.306Z,99389.13
2018-07-14T15:07:39.985Z,99392.20
2018-07-14T15:10:10.762Z,99392.56
2018-07-14T15:12:41.677Z,99391.34
2018-07-14T15:15:12.331Z,99387.50
2018-07-14T15:17:43.222Z,99385.67
2018-07-14T15:20:13.594Z,99383.30
2018-07-14T15:22:44.634Z,99388.28
2018-07-14T15:25:15.406Z,99386.64
2018-07-14T15:27:45.991Z,99389.27
2018-07-14T15:30:16.709Z,99380.58
2018-07-14T15:32:47.453Z,99381.92
2018-07-14T15:35:18.058Z,99375.19
2018-07-14T15:37:48.778Z,99379.11
2018-07-14T15:40:19.606Z,99377.41
2018-07-14T15:42:50.211Z,99385.25
2018-07-14T15:45:21.025Z,99383.17
2018-07-14T15:47:51.934Z,99376.45
2018-07-14T15:50:22.726Z,99375.25
2018-07-14T15:52:53.939Z,99378.18
2018-07-14T15:55:25.222Z,99371.25
2018-07-14T15:57:56.133Z,99372.69
2018-07-14T16:00:26.702Z,99386.89
2018-07-14T16:02:57.602Z,99374.92
2018-07-14T16:05:28.354Z,99381.14
2018-07-14T16:07:59.251Z,99378.08
2018-07-14T16:10:29.870Z,99378.91
2018-07-14T16:13:00.480Z,99376.17
2018-07-14T16:15:31.244Z,99381.38
2018-07-14T16:18:01.931Z,99385.34
2018-07-14T16:20:32.617Z,99384.34
2018-07-14T16:23:03.594Z,99384.42
2018-07-14T16:25:34.187Z,99381.16
2018-07-14T16:28:05.039Z,99384.95
2018-07-14T16:30:35.113Z,99379.01
2018-07-14T16:33:05.982Z,99388.25
2018-07-14T16:35:36.899Z,99392.67
2018-07-14T16:38:07.642Z,99392.67
2018-07-14T16:40:38.445Z,99400.97
2018-07-14T16:43:09.187Z,99400.13
2018-07-14T16:45:39.951Z,99393.48
2018-07-14T16:48:11.066Z,99401.49
2018-07-14T16:50:41.721Z,99402.81
2018-07-14T16:53:12.497Z,99400.50
2018-07-14T16:55:43.247Z,99402.42
2018-07-14T16:58:14.329Z,99405.31
2018-07-14T17:00:45.214Z,99404.30
2018-07-14T17:03:16.008Z,99410.23
2018-07-14T17:05:46.572Z,99415.19
2018-07-14T17:08:17.319Z,99414.92
2018-07-14T17:10:48.007Z,99421.75
2018-07-14T17:13:18.710Z,99415.03
2018-07-14T17:15:49.414Z,99420.13
2018-07-14T17:18:20.130Z,99416.25
2018-07-14T17:20:50.523Z,99417.95
2018-07-14T17:23:20.830Z,99415.28
2018-07-14T17:25:51.173Z,99419.94
2018-07-14T17:28:21.509Z,99425.55
2018-07-14T17:30:51.793Z,99427.35
2018-07-14T17:33:22.597Z,99424.33
2018-07-14T17:35:53.297Z,99424.03
2018-07-14T17:38:24.422Z,99424.96
2018-07-14T17:40:55.060Z,99419.27
2018-07-14T17:43:25.966Z,99424.25
2018-07-14T17:45:56.674Z,99426.38
2018-07-14T17:48:27.547Z,99424.92
2018-07-14T17:50:58.252Z,99436.59
2018-07-14T17:53:28.914Z,99435.00
2018-07-14T17:55:59.566Z,99432.75
2018-07-14T17:58:30.441Z,99434.00
2018-07-14T18:01:01.151Z,99437.29
2018-07-14T18:03:32.103Z,99433.97
2018-07-14T18:06:02.815Z,99432.78
2018-07-14T18:08:33.686Z,99439.25
2018-07-14T18:11:04.406Z,99448.93
2018-07-14T18:13:35.171Z,99451.38
2018-07-14T18:16:05.938Z,99456.88
2018-07-14T18:18:36.682Z,99450.83
2018-07-14T18:21:07.586Z,99460.78
2018-07-14T18:23:37.938Z,99463.19
2018-07-14T18:26:08.260Z,99470.36
2018-07-14T18:28:38.864Z,99473.08
2018-07-14T18:31:09.167Z,99470.55
2018-07-14T18:33:39.547Z,99474.33
2018-07-14T18:36:09.946Z,99479.22
2018-07-14T18:38:40.293Z,99488.05
2018-07-14T18:41:10.981Z,99494.62
2018-07-14T18:43:41.749Z,99495.08
2018-07-14T18:46:12.468Z,99507.48
2018-07-14T18:48:43.723Z,99510.38
2018-07-14T18:51:14.414Z,99511.36
2018-07-14T18:53:44.930Z,99518.36
2018-07-14T18:56:15.537Z,99515.63
2018-07-14T18:58:46.223Z,99518.17
2018-07-14T19:01:16.918Z,99525.86
2018-07-14T19:03:47.658Z,99527.41
2018-07-14T19:06:18.154Z,99529.71
2018-07-14T19:08:48.848Z,99530.41
2018-07-14T19:11:19.461Z,99533.33
2018-07-14T19:13:49.930Z,99537.10
2018-07-14T19:16:20.230Z,99533.47
2018-07-14T19:18:50.981Z,99532.52
2018-07-14T19:21:21.642Z,99533.88
2018-07-14T19:23:52.454Z,99540.55
2018-07-14T19:26:23.272Z,99542.44
2018-07-14T19:28:54.546Z,99547.89
2018-07-14T19:31:25.786Z,99549.82
2018-07-14T19:33:56.358Z,99550.21
2018-07-14T19:36:27.111Z,99549.23
2018-07-14T19:38:57.951Z,99549.14
2018-07-14T19:41:28.737Z,99552.44
2018-07-14T19:43:59.638Z,99551.10
2018-07-14T19:46:30.218Z,99542.92
2018-07-14T19:49:01.118Z,99551.91
2018-07-14T19:51:31.682Z,99543.48
2018-07-14T19:54:02.041Z,99546.30
2018-07-14T19:56:33.119Z,99554.16
2018-07-14T19:59:03.874Z,99536.80
2018-07-14T20:01:34.521Z,99546.98
2018-07-14T20:04:05.361Z,99544.94
2018-07-14T20:06:36.137Z,99549.41
2018-07-14T20:09:08.113Z,99552.97
2018-07-14T20:11:38.873Z,99553.17
2018-07-14T20:14:09.633Z,99552.51
2018-07-14T20:16:40.286Z,99555.21
2018-07-14T20:19:11.153Z,99555.94
2018-07-14T20:21:41.797Z,99562.38
2018-07-14T20:24:12.490Z,99560.78
2018-07-14T20:26:43.206Z,99560.27
2018-07-14T20:29:14.153Z,99565.48
2018-07-14T20:31:44.390Z,99565.83
2018-07-14T20:34:16.554Z,99568.58
2018-07-14T20:36:47.052Z,99576.02
2018-07-14T20:39:17.738Z,99570.87
2018-07-14T20:41:48.451Z,99572.09
2018-07-14T20:44:19.255Z,99570.55
2018-07-14T20:46:50.003Z,99574.84
2018-07-14T20:49:20.795Z,99585.72
2018-07-14T20:51:51.435Z,99588.42
2018-07-14T20:54:22.251Z,99587.79
2018-07-14T20:56:52.976Z,99590.91
2018-07-14T20:59:23.897Z,99589.59
2018-07-14T21:01:54.594Z,99589.34
2018-07-14T21:04:25.791Z,99593.42
2018-07-14T21:06:56.483Z,99592.08
2018-07-14T21:09:27.588Z,99591.35
2018-07-14T21:11:58.250Z,99595.49
2018-07-14T21:14:28.989Z,99590.59
2018-07-14T21:16:59.690Z,99598.11
2018-07-14T21:19:30.857Z,99604.37
2018-07-14T21:22:01.465Z,99611.19
2018-07-14T21:24:32.247Z,99608.78
2018-07-14T21:27:02.969Z,99613.48
2018-07-14T21:29:33.770Z,99606.11
2018-07-14T21:32:04.374Z,99608.81
2018-07-14T21:34:35.150Z,99606.23
2018-07-14T21:37:05.836Z,99608.30
2018-07-14T21:39:38.341Z,99601.80
2018-07-14T21:42:09.030Z,99596.27
2018-07-14T21:44:39.733Z,99602.03
2018-07-14T21:47:10.411Z,99602.03
2018-07-14T21:49:41.877Z,99598.35
2018-07-14T21:52:12.429Z,99598.09
2018-07-14T21:54:43.489Z,99595.49
2018-07-14T21:57:14.169Z,99592.60
2018-07-14T21:59:44.781Z,99599.66
2018-07-14T22:02:15.449Z,99594.98
2018-07-14T22:04:46.137Z,99594.16
2018-07-14T22:07:16.912Z,99588.38
2018-07-14T22:09:47.638Z,99598.50
2018-07-14T22:12:18.318Z,99585.73
2018-07-14T22:14:49.035Z,99600.69
2018-07-14T22:17:19.794Z,99592.61
2018-07-14T22:19:50.401Z,99595.89
2018-07-14T22:22:21.357Z,99591.00
2018-07-14T22:24:52.082Z,99592.04
2018-07-14T22:27:22.813Z,99597.52
2018-07-14T22:29:53.498Z,99591.23
2018-07-14T22:32:24.254Z,99591.23
2018-07-14T22:34:55.187Z,99593.06
2018-07-14T22:37:25.961Z,99585.78
2018-07-14T22:39:56.686Z,99587.61
2018-07-14T22:42:27.482Z,99583.46
2018-07-14T22:44:59.870Z,99589.71
2018-07-14T22:47:30.606Z,99583.98
2018-07-14T22:50:01.245Z,99582.91
2018-07-14T22:52:31.357Z,99584.75
2018-07-14T22:55:01.618Z,99579.51
2018-07-14T22:57:32.482Z,99583.41
2018-07-14T23:00:03.219Z,99573.75
2018-07-14T23:02:33.986Z,99575.06
2018-07-14T23:05:04.146Z,99573.74
2018-07-14T23:07:35.522Z,99563.30
2018-07-14T23:10:06.393Z,99569.83
2018-07-14T23:12:37.227Z,99570.02
2018-07-14T23:15:08.057Z,99576.09
2018-07-14T23:17:38.851Z,99565.59
2018-07-14T23:20:09.500Z,99575.84
2018-07-14T23:22:40.177Z,99569.05
2018-07-14T23:25:10.870Z,99576.11
2018-07-14T23:27:41.853Z,99578.92
2018-07-14T23:30:12.518Z,99577.59
2018-07-14T23:32:43.301Z,99568.98
2018-07-14T23:35:13.970Z,99572.33
2018-07-14T23:37:44.830Z,99575.78
2018-07-14T23:40:15.506Z,99570.82
2018-07-14T23:42:46.298Z,99573.17
2018-07-14T23:45:17.014Z,99578.70
2018-07-14T23:47:47.875Z,99580.81
2018-07-14T23:50:18.509Z,99577.88
2018-07-14T23:52:49.308Z,99577.61
2018-07-14T23:55:19.989Z,99570.57
2018-07-14T23:57:50.585Z,99578.47
